Love Boat — OT3861 — position and weather

sailwx.info

Track history (hours):
 
Tides and Currents Weather Stations Pressure Air Temp Water Temp Dewpoint Dewpoint Depression Visibility Wind Speed Wind Dir Waves Ship Positions

Love Boat

Last reported at 2015-Jul-31 06:33 UTC. Time now 2015-Jul-31 09:21 UTC.
Position N 51°14' E 006°46'.

Length 110 m.

Type: Ship. MMSI: 205386190.

Date/timePositionNaut miles runAvg speedWind from/ knotsBaromVisibWave heightAir tempDewpointWater temp
2015-Jul-31 06:33N 51°14' E 006°46'4 3.6
2015-Jul-31 05:33N 51°11' E 006°48'5 4.5
2015-Jul-31 04:32N 51°07' E 006°53'11 1.9
2015-Jul-30 22:30N 50°56' E 006°58'  
2015-Jul-22 09:31N 50°47' E 007°02'4 3.5
2015-Jul-22 08:17N 50°51' E 006°59'3 3.0
2015-Jul-22 07:12N 50°54' E 007°02'2 3.5
2015-Jul-22 06:31N 50°55' E 006°59'16 3.1
2015-Jul-22 01:15N 51°10' E 006°48'1 1.3
2015-Jul-22 00:33N 51°10' E 006°48'0 0.0
2015-Jul-21 23:33N 51°10' E 006°48'0 0.0
2015-Jul-21 22:33N 51°10' E 006°48'0 0.0
2015-Jul-21 21:33N 51°10' E 006°48'0 0.0
2015-Jul-21 20:33N 51°10' E 006°48'0 0.0
2015-Jul-21 19:33N 51°10' E 006°48'0 0.5
2015-Jul-21 18:33N 51°11' E 006°48'3 3.0
2015-Jul-21 17:33N 51°13' E 006°44'1 1.3
2015-Jul-21 16:33N 51°13' E 006°42'1 0.5
2015-Jul-21 15:33N 51°12' E 006°42'0 0.0
2015-Jul-21 14:33N 51°12' E 006°42'0 0.0
2015-Jul-21 13:33N 51°12' E 006°42'0 0.0
2015-Jul-21 12:33N 51°12' E 006°42'0 0.0
2015-Jul-21 11:33N 51°12' E 006°42'0 0.0
2015-Jul-21 10:33N 51°12' E 006°42'0 0.0
2015-Jul-21 09:33N 51°12' E 006°42'1 1.2
2015-Jul-21 08:33N 51°13' E 006°43'6 6.0
2015-Jul-21 07:33N 51°10' E 006°51'  
Track history (hours):
 
Tides and Currents Weather Stations Pressure Air Temp Water Temp Dewpoint Dewpoint Depression Visibility Wind Speed Wind Dir Waves Ship Positions

Love Boat

Last reported at 2015-Jul-31 06:33 UTC. Time now 2015-Jul-31 09:21 UTC.
Position N 51°14' E 006°46'.

Length 110 m.

Type: Ship. MMSI: 205386190.

Date/timePositionNaut miles runAvg speedWind from/ knotsBaromVisibWave heightAir tempDewpointWater temp
2015-Jul-31 06:33N 51°14' E 006°46'4 3.6
2015-Jul-31 05:33N 51°11' E 006°48'5 4.5
2015-Jul-31 04:32N 51°07' E 006°53'11 1.9
2015-Jul-30 22:30N 50°56' E 006°58'  
2015-Jul-22 09:31N 50°47' E 007°02'4 3.5
2015-Jul-22 08:17N 50°51' E 006°59'3 3.0
2015-Jul-22 07:12N 50°54' E 007°02'2 3.5
2015-Jul-22 06:31N 50°55' E 006°59'16 3.1
2015-Jul-22 01:15N 51°10' E 006°48'1 1.3
2015-Jul-22 00:33N 51°10' E 006°48'0 0.0
2015-Jul-21 23:33N 51°10' E 006°48'0 0.0
2015-Jul-21 22:33N 51°10' E 006°48'0 0.0
2015-Jul-21 21:33N 51°10' E 006°48'0 0.0
2015-Jul-21 20:33N 51°10' E 006°48'0 0.0
2015-Jul-21 19:33N 51°10' E 006°48'0 0.5
2015-Jul-21 18:33N 51°11' E 006°48'3 3.0
2015-Jul-21 17:33N 51°13' E 006°44'1 1.3
2015-Jul-21 16:33N 51°13' E 006°42'1 0.5
2015-Jul-21 15:33N 51°12' E 006°42'0 0.0
2015-Jul-21 14:33N 51°12' E 006°42'0 0.0
2015-Jul-21 13:33N 51°12' E 006°42'0 0.0
2015-Jul-21 12:33N 51°12' E 006°42'0 0.0
2015-Jul-21 11:33N 51°12' E 006°42'0 0.0
2015-Jul-21 10:33N 51°12' E 006°42'0 0.0
2015-Jul-21 09:33N 51°12' E 006°42'1 1.2
2015-Jul-21 08:33N 51°13' E 006°43'6 6.0
2015-Jul-21 07:33N 51°10' E 006°51'  

Dump ship's entire track history